Time;durP1;ratioP1;P1;durP2;ratioP2;P2;SDS_P1;SDS_P2;PMS_P1;PMS_P2;Temp;Humidity;BMP_temperature;BMP_pressure;BME280_temperature;BME280_humidity;BME280_pressure;Samples;Min_cycle;Max_cycle;Signal;HPM_P1;HPM_P2
2022/07/21 00:00:07;;;;;;;5.05;1.58;;;27.30;99.90;;;;;;4133947;28;20050;-65
2022/07/21 00:02:14;;;;;;;3.30;1.35;;;27.10;99.90;;;;;;4135653;28;20459;-65
2022/07/21 00:04:19;;;;;;;2.55;1.10;;;27.20;99.90;;;;;;4132046;28;20061;-65
2022/07/21 00:06:25;;;;;;;4.07;1.45;;;27.30;99.90;;;;;;4125721;28;20489;-66
2022/07/21 00:08:51;;;;;;;2.03;1.30;;;27.50;99.90;;;;;;4143929;28;20081;-65
2022/07/21 00:10:58;;;;;;;4.45;1.30;;;27.60;99.90;;;;;;4143569;28;20071;-65
2022/07/21 00:13:04;;;;;;;6.57;1.23;;;27.70;99.90;;;;;;4118073;28;20050;-65
2022/07/21 00:15:11;;;;;;;2.15;1.27;;;27.80;99.90;;;;;;4120557;28;20523;-65
2022/07/21 00:17:16;;;;;;;2.90;1.08;;;27.80;99.90;;;;;;4126228;28;20062;-65
2022/07/21 00:19:21;;;;;;;3.72;1.00;;;27.80;99.90;;;;;;3245696;28;10000981;-65
2022/07/21 00:21:27;;;;;;;2.90;1.10;;;27.80;99.90;;;;;;4118380;28;20050;-64
2022/07/21 00:23:32;;;;;;;4.63;1.10;;;27.80;99.90;;;;;;4127320;28;20038;-65
2022/07/21 00:25:38;;;;;;;1.77;1.30;;;27.70;99.90;;;;;;4140691;28;20450;-65
2022/07/21 00:27:44;;;;;;;1.77;1.20;;;27.70;99.90;;;;;;4125773;28;20408;-65
2022/07/21 00:29:49;;;;;;;1.95;1.30;;;27.60;99.90;;;;;;4125797;28;20323;-65
2022/07/21 00:31:56;;;;;;;3.33;1.15;;;27.60;99.90;;;;;;4133897;28;20157;-65
2022/07/21 00:34:02;;;;;;;3.30;1.25;;;27.50;99.90;;;;;;4136365;28;20081;-65
2022/07/21 00:36:07;;;;;;;3.13;1.23;;;27.50;99.90;;;;;;4123108;28;20379;-65
2022/07/21 00:38:12;;;;;;;2.00;1.10;;;27.60;99.90;;;;;;4123417;28;20065;-64
2022/07/21 00:40:19;;;;;;;3.42;1.50;;;27.50;99.90;;;;;;4125231;28;20149;-65
2022/07/21 00:42:25;;;;;;;2.95;0.90;;;27.50;99.90;;;;;;4125201;28;20132;-65
2022/07/21 00:44:29;;;;;;;3.40;1.00;;;27.60;99.90;;;;;;4124812;28;20042;-65
2022/07/21 00:46:36;;;;;;;1.75;0.85;;;27.70;99.90;;;;;;4125427;28;20145;-65
2022/07/21 00:48:40;;;;;;;1.90;1.10;;;27.70;99.90;;;;;;4125653;28;20097;-65
2022/07/21 00:50:49;;;;;;;1.27;0.77;;;27.70;99.90;;;;;;4125671;28;20050;-65
2022/07/21 00:52:56;;;;;;;3.15;1.13;;;27.70;99.90;;;;;;4125525;28;20136;-66
2022/07/21 00:55:02;;;;;;;2.78;1.13;;;27.70;99.90;;;;;;4124790;28;20074;-65
2022/07/21 00:57:08;;;;;;;2.30;1.00;;;27.70;99.90;;;;;;4126381;28;20066;-65
2022/07/21 00:59:17;;;;;;;2.30;1.17;;;27.70;99.90;;;;;;4124765;28;20567;-65
2022/07/21 01:01:30;;;;;;;2.95;1.20;;;27.70;99.90;;;;;;4126020;28;20314;-65
2022/07/21 01:03:38;;;;;;;1.42;1.05;;;27.60;99.90;;;;;;4125720;28;20073;-65
2022/07/21 01:05:44;;;;;;;2.47;1.30;;;27.60;99.90;;;;;;4125949;28;20133;-64
2022/07/21 01:07:50;;;;;;;3.53;1.35;;;27.50;99.90;;;;;;4124755;28;20050;-65
2022/07/21 01:09:57;;;;;;;4.57;1.38;;;27.60;99.90;;;;;;4126253;28;20077;-65
2022/07/21 01:12:01;;;;;;;2.00;1.40;;;27.60;99.90;;;;;;4125714;28;20081;-65
2022/07/21 01:14:09;;;;;;;2.33;1.10;;;27.50;99.90;;;;;;4122527;28;20085;-65
2022/07/21 01:16:14;;;;;;;3.13;1.17;;;27.60;99.90;;;;;;4126168;28;20255;-65
2022/07/21 01:18:19;;;;;;;2.78;1.20;;;27.60;99.90;;;;;;4158979;28;20069;-65
2022/07/21 01:20:23;;;;;;;2.38;1.00;;;27.60;99.90;;;;;;4121314;28;20292;-65
2022/07/21 01:22:32;;;;;;;1.80;1.00;;;27.60;99.90;;;;;;4119513;28;20122;-65
2022/07/21 01:24:36;;;;;;;2.65;1.00;;;27.60;99.90;;;;;;4125982;28;20049;-65
2022/07/21 01:26:45;;;;;;;1.83;1.30;;;27.70;99.90;;;;;;4125598;28;20137;-65
2022/07/21 01:28:53;;;;;;;2.63;1.23;;;27.70;99.90;;;;;;4125462;28;20117;-65
2022/07/21 01:31:00;;;;;;;2.40;1.13;;;27.80;99.90;;;;;;4124932;28;20057;-66
2022/07/21 01:33:04;;;;;;;3.90;1.23;;;27.80;99.90;;;;;;4125750;28;20046;-66
2022/07/21 01:35:11;;;;;;;2.08;1.13;;;27.80;99.90;;;;;;4125698;28;20509;-65
2022/07/21 01:37:15;;;;;;;1.75;1.00;;;27.70;99.90;;;;;;4125843;28;20062;-66
2022/07/21 01:41:37;;;;;;;1.63;1.13;;;27.70;99.90;;;;;;4125314;28;20054;-65
2022/07/21 01:43:45;;;;;;;4.35;1.60;;;27.70;99.90;;;;;;4125690;28;20116;-65
2022/07/21 01:45:49;;;;;;;2.45;1.40;;;27.80;99.90;;;;;;4125341;28;20153;-65
2022/07/21 01:47:55;;;;;;;2.25;1.50;;;27.90;99.90;;;;;;4120431;28;20042;-68
2022/07/21 01:50:01;;;;;;;3.50;1.65;;;27.90;99.90;;;;;;4123076;28;20051;-67
2022/07/21 01:52:08;;;;;;;3.05;1.50;;;27.80;99.90;;;;;;4124658;28;20090;-69
2022/07/21 01:54:13;;;;;;;2.35;1.38;;;27.80;99.90;;;;;;4125297;28;20133;-66
2022/07/21 01:56:25;;;;;;;3.00;1.50;;;27.80;99.90;;;;;;4125107;28;20085;-65
2022/07/21 01:58:30;;;;;;;4.10;1.40;;;27.80;99.90;;;;;;4125876;28;20047;-65
2022/07/21 02:00:37;;;;;;;2.15;1.23;;;27.80;99.90;;;;;;4103492;28;20094;-65
2022/07/21 02:02:41;;;;;;;4.95;1.67;;;27.90;99.90;;;;;;4121777;28;20100;-64
2022/07/21 02:04:46;;;;;;;2.83;1.50;;;27.80;99.90;;;;;;4123650;28;20085;-65
2022/07/21 02:06:52;;;;;;;2.85;1.55;;;27.80;99.90;;;;;;4125123;28;20049;-65
2022/07/21 02:08:58;;;;;;;4.40;1.52;;;27.90;99.90;;;;;;4123850;28;20080;-65
2022/07/21 02:11:03;;;;;;;3.97;1.48;;;27.90;99.90;;;;;;4124990;28;20105;-64
2022/07/21 02:13:10;;;;;;;5.82;2.00;;;27.90;99.90;;;;;;4124124;28;20077;-65
2022/07/21 02:15:16;;;;;;;4.22;2.13;;;27.90;99.90;;;;;;4109173;28;20055;-65
2022/07/21 02:17:21;;;;;;;5.63;2.10;;;27.90;99.90;;;;;;4108884;28;20062;-64
2022/07/21 02:19:26;;;;;;;4.38;2.10;;;27.80;99.90;;;;;;4109121;28;20047;-65
2022/07/21 02:21:31;;;;;;;4.03;1.95;;;27.80;99.90;;;;;;4115159;28;20054;-65
2022/07/21 02:23:37;;;;;;;5.32;1.98;;;27.80;99.90;;;;;;4124266;28;20042;-65
2022/07/21 02:25:43;;;;;;;2.80;1.60;;;27.80;99.90;;;;;;4106399;28;20130;-64
2022/07/21 02:27:50;;;;;;;2.80;1.70;;;27.90;99.90;;;;;;4124036;28;20050;-65
2022/07/21 02:29:54;;;;;;;3.70;1.63;;;27.90;99.90;;;;;;4124656;28;20049;-65
2022/07/21 02:31:59;;;;;;;2.10;1.35;;;28.00;99.90;;;;;;4124731;28;20145;-64
2022/07/21 02:34:06;;;;;;;2.47;1.50;;;28.10;99.90;;;;;;4125236;28;20050;-64
2022/07/21 02:36:11;;;;;;;2.30;1.50;;;28.00;99.90;;;;;;4124751;28;20070;-64
2022/07/21 02:38:18;;;;;;;2.85;1.42;;;28.00;99.90;;;;;;4125139;28;20054;-64
2022/07/21 02:40:24;;;;;;;4.22;1.83;;;28.10;99.90;;;;;;4123506;28;20081;-64
2022/07/21 02:42:29;;;;;;;4.25;1.55;;;28.00;99.90;;;;;;4124753;28;20043;-64
2022/07/21 02:44:36;;;;;;;3.47;1.75;;;28.00;99.90;;;;;;4124941;28;20045;-65
2022/07/21 02:46:43;;;;;;;2.97;1.60;;;28.00;99.90;;;;;;4124438;28;20112;-64
2022/07/21 02:48:47;;;;;;;2.00;1.55;;;28.00;99.90;;;;;;4124974;28;20050;-64
2022/07/21 02:50:55;;;;;;;2.92;1.38;;;28.10;99.90;;;;;;4123404;28;20580;-64
2022/07/21 02:53:02;;;;;;;3.63;1.75;;;28.10;99.90;;;;;;4124740;28;20057;-64
2022/07/21 02:55:09;;;;;;;2.83;1.42;;;28.20;99.90;;;;;;4125029;28;20366;-65
2022/07/21 02:57:14;;;;;;;2.75;1.40;;;28.20;99.90;;;;;;4124925;28;20068;-64
2022/07/21 02:59:20;;;;;;;1.92;1.30;;;28.30;99.90;;;;;;4124077;28;20058;-64
2022/07/21 03:01:26;;;;;;;2.10;1.50;;;28.30;99.90;;;;;;4124637;28;20057;-64
2022/07/21 03:03:33;;;;;;;2.90;1.42;;;28.40;99.90;;;;;;4124321;28;20054;-64
2022/07/21 03:05:38;;;;;;;1.83;1.40;;;28.50;99.90;;;;;;4155581;28;20330;-64
2022/07/21 03:07:43;;;;;;;2.65;1.60;;;28.60;99.90;;;;;;4123521;28;20568;-64
2022/07/21 03:09:48;;;;;;;2.25;1.30;;;28.60;99.90;;;;;;4124471;28;20104;-64
2022/07/21 03:11:55;;;;;;;2.08;1.42;;;28.80;99.90;;;;;;4124155;28;20051;-65
2022/07/21 03:13:59;;;;;;;2.53;1.70;;;28.90;99.90;;;;;;4126918;28;20042;-64
2022/07/21 03:16:06;;;;;;;2.80;1.40;;;29.10;99.90;;;;;;4124906;28;20042;-64
2022/07/21 03:18:13;;;;;;;1.80;1.40;;;29.40;99.90;;;;;;4124172;28;20046;-65
2022/07/21 03:20:18;;;;;;;2.30;1.60;;;29.50;99.90;;;;;;4155389;28;20060;-65
2022/07/21 03:22:24;;;;;;;2.55;1.23;;;29.60;99.90;;;;;;4123597;28;20085;-65
2022/07/21 03:24:31;;;;;;;2.20;1.20;;;29.60;99.90;;;;;;4122419;28;20051;-64
2022/07/21 03:26:38;;;;;;;1.55;1.10;;;29.50;99.90;;;;;;4122852;28;20050;-64
2022/07/21 03:28:44;;;;;;;2.30;1.30;;;29.50;99.90;;;;;;4124682;28;20054;-65
2022/07/21 03:30:48;;;;;;;2.20;1.40;;;29.40;99.90;;;;;;4126652;28;20046;-64
2022/07/21 03:32:53;;;;;;;3.20;1.27;;;29.50;99.90;;;;;;4127541;28;20054;-65
2022/07/21 03:34:59;;;;;;;4.05;1.20;;;29.70;99.90;;;;;;4127452;28;20058;-64
2022/07/21 03:37:06;;;;;;;3.95;1.52;;;29.80;99.90;;;;;;4127253;28;20112;-65
2022/07/21 03:39:10;;;;;;;2.33;1.40;;;29.80;99.90;;;;;;4127451;28;20054;-65
2022/07/21 03:41:15;;;;;;;1.83;1.25;;;29.80;99.90;;;;;;4127172;28;20050;-65
2022/07/21 03:43:19;;;;;;;2.22;1.42;;;29.70;99.90;;;;;;4127308;28;20046;-64
2022/07/21 03:45:24;;;;;;;2.38;1.20;;;29.60;99.90;;;;;;4126962;28;20042;-65
2022/07/21 03:47:31;;;;;;;2.92;1.60;;;29.50;99.90;;;;;;4125909;28;20288;-64
2022/07/21 03:49:37;;;;;;;2.65;1.30;;;29.40;99.90;;;;;;4127359;28;20057;-65
2022/07/21 03:51:42;;;;;;;1.52;1.13;;;29.30;99.90;;;;;;4127159;28;20050;-65
2022/07/21 03:53:50;;;;;;;4.43;2.13;;;29.20;99.90;;;;;;4127385;28;20472;-65
2022/07/21 03:55:57;;;;;;;1.65;1.02;;;29.30;99.90;;;;;;4127439;28;20054;-65
2022/07/21 03:58:03;;;;;;;1.48;1.25;;;29.30;99.90;;;;;;4127052;28;20273;-65
2022/07/21 04:00:13;;;;;;;2.50;1.00;;;29.30;99.90;;;;;;4125611;28;20050;-65
2022/07/21 04:02:17;;;;;;;3.95;1.40;;;29.30;99.90;;;;;;4124083;28;20560;-65
2022/07/21 04:04:22;;;;;;;1.98;1.50;;;29.40;99.90;;;;;;4126430;28;20448;-64
2022/07/21 04:06:29;;;;;;;2.40;1.30;;;29.40;99.90;;;;;;4091558;28;20434;-65
2022/07/21 04:08:33;;;;;;;2.20;1.40;;;29.50;99.90;;;;;;4126785;28;20467;-64
2022/07/21 04:10:38;;;;;;;2.55;1.55;;;29.40;99.90;;;;;;4124894;28;20051;-64
2022/07/21 04:12:46;;;;;;;4.93;1.60;;;29.30;99.90;;;;;;4126629;28;20050;-64
2022/07/21 04:14:50;;;;;;;2.40;1.63;;;29.40;99.90;;;;;;4126201;28;20057;-64
2022/07/21 04:16:55;;;;;;;1.92;1.40;;;29.40;99.90;;;;;;4125773;28;20061;-65
2022/07/21 04:19:00;;;;;;;2.30;1.63;;;29.30;99.90;;;;;;4124894;28;20078;-64
2022/07/21 04:21:04;;;;;;;3.90;1.70;;;29.40;99.90;;;;;;4125679;28;20087;-65
2022/07/21 04:23:09;;;;;;;4.40;1.60;;;29.50;99.90;;;;;;4126413;28;20049;-65
2022/07/21 04:25:14;;;;;;;3.00;1.63;;;29.60;99.90;;;;;;4125947;28;20048;-64
2022/07/21 04:27:20;;;;;;;2.17;1.38;;;29.70;99.90;;;;;;4121912;28;20077;-64
2022/07/21 04:29:25;;;;;;;2.20;1.33;;;29.80;99.90;;;;;;4124870;28;20052;-64
2022/07/21 04:31:31;;;;;;;3.00;1.45;;;29.80;99.90;;;;;;4126413;28;20093;-64
2022/07/21 04:33:38;;;;;;;1.88;1.30;;;29.70;99.90;;;;;;4127419;28;20054;-65
2022/07/21 04:35:42;;;;;;;3.47;1.73;;;29.60;99.90;;;;;;4127340;28;20050;-65
2022/07/21 04:37:49;;;;;;;3.97;1.80;;;29.60;99.90;;;;;;4127155;28;20497;-65
2022/07/21 04:39:55;;;;;;;10.60;3.15;;;29.50;99.90;;;;;;4127377;28;20050;-65
2022/07/21 04:42:00;;;;;;;3.17;1.58;;;29.50;99.90;;;;;;4127098;28;20054;-65
2022/07/21 04:44:06;;;;;;;4.65;1.58;;;29.30;99.90;;;;;;4127094;28;20046;-65
2022/07/21 04:46:12;;;;;;;3.35;1.60;;;29.30;99.90;;;;;;4127673;28;20046;-65
2022/07/21 04:48:18;;;;;;;2.97;1.60;;;29.30;99.90;;;;;;4128533;28;20047;-65
2022/07/21 04:50:24;;;;;;;2.85;1.60;;;29.20;99.90;;;;;;4128044;28;20046;-66
2022/07/21 04:52:29;;;;;;;2.63;1.50;;;29.00;99.90;;;;;;4127808;28;20061;-65
2022/07/21 04:54:33;;;;;;;1.50;1.40;;;28.90;99.90;;;;;;4129095;28;20497;-66
2022/07/21 04:56:43;;;;;;;3.50;1.55;;;28.80;99.90;;;;;;4128693;28;20315;-65
2022/07/21 04:58:50;;;;;;;2.67;1.50;;;28.80;99.90;;;;;;4128844;28;20142;-67
2022/07/21 05:00:55;;;;;;;4.78;1.45;;;28.80;99.90;;;;;;4128747;28;20049;-66
2022/07/21 05:03:02;;;;;;;1.98;1.48;;;28.80;99.90;;;;;;4110244;28;20414;-67
2022/07/21 05:05:07;;;;;;;2.35;1.50;;;28.80;99.90;;;;;;4128521;28;20047;-66
2022/07/21 05:07:13;;;;;;;3.03;1.90;;;28.90;99.90;;;;;;4128437;28;20042;-65
2022/07/21 05:09:17;;;;;;;2.67;1.63;;;29.00;99.90;;;;;;4128647;28;20046;-65
2022/07/21 05:11:24;;;;;;;2.78;1.88;;;29.00;99.90;;;;;;4128029;28;20154;-65
2022/07/21 05:13:28;;;;;;;3.25;1.60;;;29.00;99.90;;;;;;4130719;28;20077;-65
2022/07/21 05:15:35;;;;;;;2.38;1.55;;;29.00;99.90;;;;;;4143199;28;20054;-65
2022/07/21 05:17:40;;;;;;;3.28;2.20;;;29.00;99.90;;;;;;4143316;28;20603;-65
2022/07/21 05:19:48;;;;;;;2.70;1.90;;;29.10;99.90;;;;;;4144860;28;20416;-65
2022/07/21 05:21:59;;;;;;;2.55;1.45;;;29.10;99.90;;;;;;4134337;28;20038;-65
2022/07/21 05:24:04;;;;;;;2.95;1.38;;;29.20;99.90;;;;;;4124165;28;20437;-66
2022/07/21 05:26:08;;;;;;;2.45;1.30;;;29.30;99.90;;;;;;4128275;28;20149;-65
2022/07/21 05:28:15;;;;;;;2.50;1.65;;;29.40;99.90;;;;;;4117106;28;20361;-64
2022/07/21 05:30:19;;;;;;;2.10;1.60;;;29.40;99.90;;;;;;4111969;28;20433;-64
2022/07/21 05:32:24;;;;;;;3.42;1.80;;;29.30;99.90;;;;;;4121765;28;20583;-65
2022/07/21 05:34:30;;;;;;;1.90;1.05;;;29.40;99.90;;;;;;4128548;28;20045;-65
2022/07/21 05:36:35;;;;;;;3.15;1.35;;;29.60;99.90;;;;;;4128085;28;20544;-65
2022/07/21 05:38:41;;;;;;;1.50;1.10;;;29.60;99.90;;;;;;4128270;28;20042;-64
2022/07/21 05:40:45;;;;;;;2.22;1.33;;;29.60;99.90;;;;;;4127233;28;20133;-64
2022/07/21 05:42:52;;;;;;;2.58;1.40;;;29.60;99.90;;;;;;4128224;28;20046;-64
2022/07/21 05:44:56;;;;;;;2.63;1.58;;;29.60;99.90;;;;;;4128593;28;20046;-65
2022/07/21 05:47:01;;;;;;;3.20;1.27;;;29.50;99.90;;;;;;4127770;28;20490;-64
2022/07/21 05:49:05;;;;;;;1.60;1.20;;;29.50;99.90;;;;;;4126566;28;20060;-65
2022/07/21 05:51:10;;;;;;;2.28;1.40;;;29.50;99.90;;;;;;4127842;28;20038;-65
2022/07/21 05:53:22;;;;;;;2.50;1.63;;;29.60;99.90;;;;;;4127555;28;20126;-65
2022/07/21 05:55:26;;;;;;;3.47;1.65;;;29.60;99.90;;;;;;4127867;28;20058;-65
2022/07/21 05:57:31;;;;;;;1.85;1.35;;;29.70;99.90;;;;;;4128213;28;20066;-65
2022/07/21 05:59:36;;;;;;;1.98;1.10;;;29.80;99.90;;;;;;4126778;28;20093;-65
2022/07/21 06:01:40;;;;;;;4.28;1.63;;;29.70;99.90;;;;;;4127956;28;20141;-65
2022/07/21 06:03:46;;;;;;;2.55;1.52;;;29.70;99.90;;;;;;4126600;28;20058;-64
2022/07/21 06:05:51;;;;;;;3.35;1.65;;;29.60;99.90;;;;;;4127884;28;20053;-64
2022/07/21 06:07:56;;;;;;;2.97;2.08;;;29.60;99.90;;;;;;4128162;28;20049;-64
2022/07/21 06:10:00;;;;;;;4.28;1.67;;;29.50;99.90;;;;;;4128099;28;20113;-63
2022/07/21 06:12:07;;;;;;;2.88;1.60;;;29.60;99.90;;;;;;4126692;28;20161;-62
2022/07/21 06:14:12;;;;;;;3.33;1.50;;;29.70;99.90;;;;;;4134611;28;20100;-63
2022/07/21 06:16:17;;;;;;;1.65;1.20;;;29.80;99.90;;;;;;4142746;28;20053;-63
2022/07/21 06:18:24;;;;;;;2.55;1.40;;;29.70;99.90;;;;;;4144047;28;20054;-62
2022/07/21 06:20:30;;;;;;;2.40;1.38;;;29.70;99.90;;;;;;4144006;28;20516;-62
2022/07/21 06:22:35;;;;;;;2.25;1.30;;;29.80;99.90;;;;;;4129067;28;20468;-63
2022/07/21 06:24:42;;;;;;;2.67;1.27;;;29.90;99.90;;;;;;4127788;28;20049;-64
2022/07/21 06:26:49;;;;;;;1.80;1.40;;;30.00;99.90;;;;;;4127747;28;20057;-63
2022/07/21 06:28:53;;;;;;;3.10;1.20;;;30.10;99.90;;;;;;4127834;28;20437;-63
2022/07/21 06:30:58;;;;;;;2.47;1.35;;;30.10;99.90;;;;;;4127161;28;20057;-63
2022/07/21 06:33:05;;;;;;;2.40;1.50;;;30.10;99.90;;;;;;4134849;28;20042;-63
2022/07/21 06:35:10;;;;;;;2.67;1.42;;;30.00;99.90;;;;;;4129325;28;20046;-63
2022/07/21 06:37:15;;;;;;;2.05;1.23;;;30.00;99.90;;;;;;4142036;28;20053;-63
2022/07/21 06:39:22;;;;;;;2.33;1.60;;;29.90;99.90;;;;;;4144101;28;20136;-63
2022/07/21 06:41:27;;;;;;;2.30;1.25;;;29.70;99.90;;;;;;4130281;28;20048;-63
2022/07/21 06:43:34;;;;;;;1.20;1.10;;;29.60;99.90;;;;;;4126754;28;20125;-64
2022/07/21 06:45:38;;;;;;;1.33;1.10;;;29.70;99.90;;;;;;4127675;28;20042;-64
2022/07/21 06:47:43;;;;;;;2.08;1.30;;;29.90;99.90;;;;;;4126576;28;20046;-64
2022/07/21 06:49:50;;;;;;;2.47;1.30;;;30.00;99.90;;;;;;4140401;28;20053;-64
2022/07/21 06:51:56;;;;;;;1.75;1.00;;;30.10;99.90;;;;;;4134326;28;20121;-64
2022/07/21 06:54:01;;;;;;;3.67;1.63;;;30.50;99.90;;;;;;4126522;28;20062;-64
2022/07/21 06:56:11;;;;;;;2.25;1.35;;;30.80;99.90;;;;;;4127756;28;20066;-64
2022/07/21 06:58:19;;;;;;;4.07;1.42;;;30.80;99.90;;;;;;4128105;28;20121;-63
2022/07/21 07:00:24;;;;;;;3.25;1.30;;;30.90;99.90;;;;;;4127735;28;20046;-64
2022/07/21 07:02:31;;;;;;;2.30;1.30;;;30.90;99.90;;;;;;4127870;28;20517;-64
2022/07/21 07:04:37;;;;;;;1.88;1.27;;;31.00;99.90;;;;;;4128609;28;20508;-64
2022/07/21 07:06:42;;;;;;;1.45;1.00;;;31.20;99.90;;;;;;4141490;28;20061;-64
2022/07/21 07:08:46;;;;;;;2.20;1.17;;;31.30;99.90;;;;;;4147368;28;20067;-64
2022/07/21 07:10:52;;;;;;;2.70;1.33;;;31.30;99.90;;;;;;4146302;28;20042;-64
2022/07/21 07:12:57;;;;;;;2.20;1.17;;;31.20;99.90;;;;;;4130525;28;20070;-64
2022/07/21 07:15:22;;;;;;;2.97;1.40;;;31.30;99.90;;;;;;4130702;28;20054;-64
2022/07/21 07:17:27;;;;;;;1.65;1.20;;;31.30;99.90;;;;;;4130653;28;20501;-64
2022/07/21 07:19:31;;;;;;;1.90;1.30;;;31.70;99.90;;;;;;4130751;28;20097;-64
2022/07/21 07:21:36;;;;;;;1.48;1.00;;;31.90;99.90;;;;;;4129281;28;20409;-63
2022/07/21 07:23:40;;;;;;;2.42;1.10;;;31.80;99.90;;;;;;4123230;28;20109;-63
2022/07/21 07:25:45;;;;;;;1.20;1.10;;;32.00;99.90;;;;;;4126875;28;20097;-63
2022/07/21 07:27:51;;;;;;;1.90;1.23;;;32.20;99.90;;;;;;4125573;28;20054;-64
2022/07/21 07:29:58;;;;;;;1.33;0.98;;;31.90;99.90;;;;;;4114231;28;20042;-65
2022/07/21 07:32:10;;;;;;;2.33;1.20;;;31.80;99.90;;;;;;4118924;28;20100;-63
2022/07/21 07:34:17;;;;;;;2.10;1.10;;;31.90;99.90;;;;;;4130536;28;20093;-64
2022/07/21 07:36:24;;;;;;;2.17;1.20;;;32.00;99.90;;;;;;4130225;28;20575;-64
2022/07/21 07:38:29;;;;;;;1.60;1.15;;;32.20;99.90;;;;;;4130497;28;20043;-64
2022/07/21 07:40:36;;;;;;;1.83;1.10;;;32.30;99.90;;;;;;4139187;28;20054;-64
2022/07/21 07:42:42;;;;;;;1.20;1.10;;;32.20;99.90;;;;;;4146462;28;20368;-64
2022/07/21 07:44:47;;;;;;;1.30;0.95;;;32.40;99.90;;;;;;4146425;28;20050;-63
2022/07/21 07:46:54;;;;;;;5.90;1.15;;;32.60;99.90;;;;;;4146336;28;20440;-64
2022/07/21 07:48:59;;;;;;;1.45;1.00;;;32.80;99.90;;;;;;4133462;28;20038;-64
2022/07/21 07:51:13;;;;;;;2.03;1.17;;;32.90;99.90;;;;;;4129165;28;20044;-64
2022/07/21 07:53:20;;;;;;;1.88;1.00;;;33.00;99.90;;;;;;4129831;28;20043;-63
2022/07/21 07:55:26;;;;;;;1.85;1.02;;;32.80;99.90;;;;;;4129923;28;20446;-63
2022/07/21 07:57:33;;;;;;;1.17;1.08;;;32.70;99.90;;;;;;4130468;28;20057;-63
2022/07/21 07:59:39;;;;;;;2.58;1.25;;;32.40;99.90;;;;;;4111222;28;20043;-63
2022/07/21 08:01:46;;;;;;;1.95;1.10;;;32.30;99.90;;;;;;4129576;28;20080;-65
2022/07/21 08:03:51;;;;;;;2.15;1.30;;;32.50;99.90;;;;;;4129512;28;20468;-63
2022/07/21 08:06:06;;;;;;;2.53;1.15;;;32.30;99.90;;;;;;4129016;28;20104;-63
2022/07/21 08:08:12;;;;;;;2.77;1.20;;;32.30;99.90;;;;;;4129785;28;20042;-63
2022/07/21 08:10:18;;;;;;;2.85;1.23;;;32.00;99.90;;;;;;4129702;28;20129;-63
2022/07/21 08:12:44;;;;;;;2.55;1.20;;;32.00;99.90;;;;;;4129945;28;20050;-64
2022/07/21 08:14:50;;;;;;;1.40;1.05;;;32.10;99.90;;;;;;4129719;28;20181;-63
2022/07/21 08:16:55;;;;;;;2.00;1.20;;;32.10;99.90;;;;;;4128873;28;20054;-63
2022/07/21 08:18:59;;;;;;;1.25;1.00;;;32.20;99.90;;;;;;4124798;28;20120;-63
2022/07/21 08:21:04;;;;;;;1.67;1.20;;;32.40;99.90;;;;;;4117950;28;20058;-63
2022/07/21 08:23:09;;;;;;;1.23;1.10;;;32.40;99.90;;;;;;4112673;28;20770;-63
2022/07/21 08:25:15;;;;;;;3.28;1.25;;;32.20;99.90;;;;;;4110871;28;20350;-63
2022/07/21 08:27:20;;;;;;;3.05;1.33;;;32.10;99.90;;;;;;4112918;28;20125;-63
2022/07/21 08:29:24;;;;;;;1.88;1.33;;;32.20;99.90;;;;;;4125037;28;20130;-64
2022/07/21 08:31:31;;;;;;;3.83;1.67;;;31.90;99.90;;;;;;4126682;28;20046;-63
2022/07/21 08:33:35;;;;;;;2.20;1.17;;;31.80;99.90;;;;;;4129360;28;20040;-64
2022/07/21 08:35:40;;;;;;;3.67;1.23;;;31.80;99.90;;;;;;4129487;28;20047;-63
2022/07/21 08:37:54;;;;;;;1.85;1.17;;;31.90;99.90;;;;;;4129602;28;20069;-63
2022/07/21 08:40:01;;;;;;;2.13;1.10;;;32.00;99.90;;;;;;4133285;28;20077;-63
2022/07/21 08:42:09;;;;;;;3.65;1.20;;;32.10;99.90;;;;;;4135784;28;20042;-64
2022/07/21 08:44:13;;;;;;;2.63;1.45;;;32.20;99.90;;;;;;4128974;28;20494;-64
2022/07/21 08:46:21;;;;;;;2.30;1.30;;;32.30;99.90;;;;;;4129075;28;20069;-64
2022/07/21 08:48:26;;;;;;;2.35;1.25;;;32.30;99.90;;;;;;4143875;28;20191;-64
2022/07/21 08:50:36;;;;;;;2.92;1.30;;;32.20;99.90;;;;;;4128845;28;20160;-64
2022/07/21 08:52:42;;;;;;;1.60;1.02;;;32.20;99.90;;;;;;4129056;28;20074;-64
2022/07/21 08:54:47;;;;;;;2.65;1.75;;;32.00;99.90;;;;;;4129174;28;20361;-64
2022/07/21 08:56:52;;;;;;;2.47;1.20;;;31.70;99.90;;;;;;4129061;28;20070;-63
2022/07/21 08:58:59;;;;;;;3.28;1.20;;;31.70;99.90;;;;;;4127830;28;20129;-64
2022/07/21 09:01:03;;;;;;;2.97;1.50;;;31.70;99.90;;;;;;4128562;28;20050;-64
2022/07/21 09:03:22;;;;;;;1.73;1.30;;;31.70;99.90;;;;;;4127900;28;20081;-63
2022/07/21 09:05:28;;;;;;;2.03;1.10;;;31.90;99.90;;;;;;4127627;28;20070;-64
2022/07/21 09:07:57;;;;;;;3.00;1.25;;;32.00;99.90;;;;;;4128936;28;20445;-63
2022/07/21 09:10:05;;;;;;;4.18;1.48;;;32.10;99.90;;;;;;4093980;28;20078;-63
2022/07/21 09:12:12;;;;;;;1.75;1.25;;;32.30;99.90;;;;;;4129031;28;20042;-63
2022/07/21 09:14:21;;;;;;;3.10;1.70;;;32.10;99.90;;;;;;4129065;28;20050;-63
2022/07/21 09:16:39;;;;;;;2.55;1.45;;;32.00;99.90;;;;;;4128356;28;20047;-63
2022/07/21 09:18:50;;;;;;;1.95;1.33;;;32.10;99.90;;;;;;4127312;28;20512;-63
2022/07/21 09:20:58;;;;;;;2.42;1.20;;;32.10;99.90;;;;;;4127250;28;20054;-63
2022/07/21 09:23:11;;;;;;;2.03;1.33;;;32.10;99.90;;;;;;4132171;28;20053;-63
2022/07/21 09:25:33;;;;;;;2.75;1.42;;;32.10;99.90;;;;;;4133082;28;20054;-64
2022/07/21 09:27:42;;;;;;;2.83;1.20;;;32.20;99.90;;;;;;4132817;28;20048;-64
2022/07/21 09:29:59;;;;;;;3.15;1.35;;;32.20;99.90;;;;;;4135587;28;20041;-64
2022/07/21 09:32:32;;;;;;;1.58;1.40;;;32.50;99.90;;;;;;4135187;28;20390;-64
2022/07/21 09:34:37;;;;;;;3.67;1.60;;;32.60;99.90;;;;;;4135344;28;20535;-64
2022/07/21 09:36:57;;;;;;;2.03;1.30;;;32.60;99.90;;;;;;4151182;28;20108;-63
2022/07/21 09:39:04;;;;;;;2.05;1.13;;;32.50;99.90;;;;;;4133601;28;20069;-64
2022/07/21 09:41:20;;;;;;;2.78;1.30;;;32.30;99.90;;;;;;4135563;28;20046;-64
2022/07/21 09:43:41;;;;;;;4.13;1.40;;;32.10;99.90;;;;;;4137665;28;20351;-63
2022/07/21 09:45:49;;;;;;;1.90;1.20;;;31.90;99.90;;;;;;4135177;28;20057;-63
2022/07/21 09:47:54;;;;;;;4.43;1.80;;;31.80;99.90;;;;;;4165634;28;20140;-64
2022/07/21 09:49:59;;;;;;;3.22;1.80;;;31.60;99.90;;;;;;4133622;28;20046;-62
2022/07/21 09:52:34;;;;;;;2.83;1.80;;;31.50;99.90;;;;;;4135052;28;20038;-64
2022/07/21 09:54:40;;;;;;;3.83;1.75;;;31.50;99.90;;;;;;4134152;28;20050;-66
2022/07/21 09:56:52;;;;;;;6.55;2.00;;;31.40;99.90;;;;;;4146998;28;20562;-63
2022/07/21 09:58:57;;;;;;;3.35;1.40;;;31.40;99.90;;;;;;4136208;28;20134;-63
2022/07/21 10:01:02;;;;;;;3.13;1.58;;;31.40;99.90;;;;;;4136067;28;20413;-62
2022/07/21 10:03:09;;;;;;;4.07;1.63;;;31.40;99.90;;;;;;4136399;28;20072;-65
2022/07/21 10:05:15;;;;;;;4.45;1.50;;;31.40;99.90;;;;;;4136055;28;20050;-64
2022/07/21 10:07:20;;;;;;;2.53;1.60;;;31.40;99.90;;;;;;4136320;28;20046;-63
2022/07/21 10:09:26;;;;;;;3.03;1.77;;;31.40;99.90;;;;;;4134152;28;20107;-63
2022/07/21 10:11:31;;;;;;;2.35;1.55;;;31.40;99.90;;;;;;4135037;28;20042;-64
2022/07/21 10:13:36;;;;;;;2.20;1.50;;;31.30;99.90;;;;;;4136229;28;20052;-64
2022/07/21 10:15:44;;;;;;;3.15;1.75;;;31.20;99.90;;;;;;4136251;28;20050;-64
2022/07/21 10:17:49;;;;;;;1.90;1.52;;;31.20;99.90;;;;;;4139182;28;20048;-64
2022/07/21 10:20:07;;;;;;;2.50;1.90;;;31.10;99.90;;;;;;4133057;28;20068;-64
2022/07/21 10:22:51;;;;;;;3.65;2.20;;;31.10;99.90;;;;;;4127661;28;20042;-64
2022/07/21 10:24:56;;;;;;;3.72;1.73;;;31.00;99.90;;;;;;4129198;28;20049;-64
2022/07/21 10:27:11;;;;;;;4.03;2.20;;;31.00;99.90;;;;;;4130029;28;20512;-65
2022/07/21 10:29:58;;;;;;;2.45;1.95;;;31.00;99.90;;;;;;4130069;28;20050;-64
2022/07/21 10:32:16;;;;;;;2.67;1.92;;;30.90;99.90;;;;;;4129637;28;20445;-65
2022/07/21 10:34:34;;;;;;;3.58;2.05;;;30.90;99.90;;;;;;4136555;28;20061;-64
2022/07/21 10:36:40;;;;;;;4.32;2.00;;;30.90;99.90;;;;;;4135347;28;20046;-64
2022/07/21 10:38:44;;;;;;;3.05;2.30;;;30.90;99.90;;;;;;4138074;28;20046;-65
2022/07/21 10:40:51;;;;;;;4.18;2.50;;;30.80;99.90;;;;;;4137780;28;20409;-63
2022/07/21 10:43:41;;;;;;;4.20;2.50;;;30.70;99.90;;;;;;4135646;28;20039;-63
2022/07/21 10:45:46;;;;;;;5.05;2.53;;;30.60;99.90;;;;;;4132935;28;20085;-63
2022/07/21 10:47:51;;;;;;;4.25;2.13;;;30.60;99.90;;;;;;4136518;28;20489;-64
2022/07/21 10:50:00;;;;;;;4.07;2.20;;;30.60;99.90;;;;;;4134644;28;20050;-64
2022/07/21 10:52:05;;;;;;;3.72;2.38;;;30.60;99.90;;;;;;4132665;28;20045;-65
2022/07/21 10:54:18;;;;;;;4.75;2.08;;;30.40;99.90;;;;;;4094364;28;20054;-64
2022/07/21 10:56:28;;;;;;;6.45;2.40;;;30.50;99.90;;;;;;4128308;28;20038;-64
2022/07/21 10:58:37;;;;;;;3.55;1.55;;;30.50;99.90;;;;;;4129542;28;20116;-63
2022/07/21 11:00:47;;;;;;;2.90;1.60;;;30.40;99.90;;;;;;4129040;28;20038;-63
2022/07/21 11:03:00;;;;;;;2.28;1.50;;;30.30;99.90;;;;;;4129978;28;20072;-64